createdAt,value
2023-02-06T00:00:12.223Z,3.99
2023-02-06T00:01:12.209Z,3.99
2023-02-06T00:02:12.263Z,3.94
2023-02-06T00:03:12.210Z,3.91
2023-02-06T00:04:12.171Z,3.92
2023-02-06T00:05:12.164Z,3.92
2023-02-06T00:06:12.186Z,3.92
2023-02-06T00:07:12.139Z,3.91
2023-02-06T00:08:12.150Z,3.91
2023-02-06T00:09:12.131Z,3.89
2023-02-06T00:10:12.112Z,3.89
2023-02-06T00:11:12.103Z,3.91
2023-02-06T00:12:12.098Z,3.88
2023-02-06T00:13:12.099Z,3.85
2023-02-06T00:14:12.077Z,3.85
2023-02-06T00:15:12.070Z,3.88
2023-02-06T00:16:12.070Z,3.88
2023-02-06T00:17:12.168Z,3.84
2023-02-06T00:18:12.027Z,3.84
2023-02-06T00:19:12.067Z,3.84
2023-02-06T00:20:12.026Z,3.82
2023-02-06T00:21:11.988Z,3.82
2023-02-06T00:22:11.988Z,3.78
2023-02-06T00:23:11.997Z,3.77
2023-02-06T00:24:12.004Z,3.81
2023-02-06T00:25:11.966Z,3.76
2023-02-06T00:26:12.075Z,3.74
2023-02-06T00:27:11.979Z,3.74
2023-02-06T00:28:11.967Z,3.74
2023-02-06T00:29:11.985Z,3.74
2023-02-06T00:30:11.907Z,3.73
2023-02-06T00:31:12.031Z,3.73
2023-02-06T00:32:11.883Z,3.67
2023-02-06T00:33:11.870Z,3.70
2023-02-06T00:34:11.869Z,3.70
2023-02-06T00:35:11.862Z,3.71
2023-02-06T00:36:11.847Z,3.67
2023-02-06T00:37:11.987Z,3.68
2023-02-06T00:38:11.854Z,3.67
2023-02-06T00:39:11.846Z,3.64
2023-02-06T00:40:11.832Z,3.66
2023-02-06T00:41:11.805Z,3.64
2023-02-06T00:42:11.810Z,3.64
2023-02-06T00:43:11.824Z,3.63
2023-02-06T00:44:11.770Z,3.61
2023-02-06T00:45:11.768Z,3.63
2023-02-06T00:46:11.805Z,3.61
2023-02-06T00:47:11.740Z,3.58
2023-02-06T00:48:11.725Z,3.63
2023-02-06T00:49:11.769Z,3.58
2023-02-06T00:50:11.733Z,3.56
2023-02-06T00:51:11.690Z,3.58
2023-02-06T00:52:11.682Z,3.56
2023-02-06T00:53:11.688Z,3.56
2023-02-06T00:54:11.782Z,3.53
2023-02-06T00:55:11.669Z,3.52
2023-02-06T00:56:11.661Z,3.52
2023-02-06T00:57:11.685Z,3.52
2023-02-06T00:58:11.609Z,3.49
2023-02-06T00:59:11.636Z,3.48
2023-02-06T01:00:11.593Z,3.48
2023-02-06T01:01:11.593Z,3.49
2023-02-06T01:02:11.586Z,3.46
2023-02-06T01:03:11.591Z,3.45
2023-02-06T01:04:11.575Z,3.45
2023-02-06T01:05:11.606Z,3.45
2023-02-06T01:06:11.535Z,3.40
2023-02-06T01:07:11.532Z,3.40
2023-02-06T01:08:11.523Z,3.37
2023-02-06T01:09:11.537Z,3.37
2023-02-06T01:10:11.493Z,3.34
2023-02-06T01:11:11.509Z,3.34
2023-02-06T01:12:11.492Z,3.33
2023-02-06T01:13:11.541Z,3.36
2023-02-06T01:14:11.479Z,3.33
2023-02-06T01:15:11.445Z,3.31
2023-02-06T01:16:11.437Z,3.27
2023-02-06T01:17:11.422Z,3.27
2023-02-06T01:18:11.404Z,3.24
2023-02-06T01:19:11.424Z,3.26
2023-02-06T01:20:11.412Z,3.21
2023-02-06T01:21:11.383Z,3.24
2023-02-06T01:22:11.408Z,3.22
2023-02-06T01:23:11.359Z,3.18
2023-02-06T01:24:11.341Z,3.18
2023-02-06T01:25:11.349Z,3.19
2023-02-06T01:26:11.326Z,3.15
2023-02-06T01:27:11.332Z,3.16
2023-02-06T01:28:11.364Z,3.13
2023-02-06T01:29:11.300Z,3.13
2023-02-06T01:30:11.301Z,3.12
2023-02-06T01:31:11.302Z,3.11
2023-02-06T01:32:11.317Z,3.09
2023-02-06T01:33:11.256Z,3.08
2023-02-06T01:34:11.235Z,3.05
2023-02-06T01:35:11.279Z,3.05
2023-02-06T01:36:11.327Z,3.06
2023-02-06T01:37:11.224Z,3.03
2023-02-06T01:38:11.200Z,3.03
2023-02-06T01:39:11.201Z,3.00
2023-02-06T01:40:11.165Z,3.01
2023-02-06T01:41:11.163Z,3.01
2023-02-06T01:42:11.154Z,2.97
2023-02-06T01:43:11.151Z,3.00
2023-02-06T01:44:11.157Z,2.95
2023-02-06T01:45:11.222Z,2.94
2023-02-06T01:46:11.121Z,2.95
2023-02-06T01:47:11.142Z,2.93
2023-02-06T01:48:11.097Z,2.91
2023-02-06T01:49:11.101Z,2.91
2023-02-06T01:50:11.071Z,2.91
2023-02-06T01:51:11.053Z,2.88
2023-02-06T01:52:11.054Z,2.88
2023-02-06T01:53:11.037Z,2.87
2023-02-06T01:54:11.026Z,2.85
2023-02-06T01:55:11.028Z,2.85
2023-02-06T01:56:11.018Z,2.82
2023-02-06T01:57:11.001Z,2.85
2023-02-06T01:58:10.992Z,2.83
2023-02-06T01:59:10.994Z,2.83
2023-02-06T02:00:10.969Z,2.82
2023-02-06T02:01:10.964Z,2.80
2023-02-06T02:02:10.996Z,2.80
2023-02-06T02:03:10.920Z,2.79
2023-02-06T02:04:10.940Z,2.77
2023-02-06T02:05:10.983Z,2.77
2023-02-06T02:06:10.894Z,2.77
2023-02-06T02:07:10.881Z,2.77
2023-02-06T02:08:10.901Z,2.73
2023-02-06T02:09:10.872Z,2.75
2023-02-06T02:10:10.860Z,2.73
2023-02-06T02:11:10.970Z,2.73
2023-02-06T02:12:10.882Z,2.73
2023-02-06T02:13:10.812Z,2.70
2023-02-06T02:14:10.813Z,2.69
2023-02-06T02:15:10.816Z,2.69
2023-02-06T02:16:10.897Z,2.69
2023-02-06T02:17:10.775Z,2.69
2023-02-06T02:18:10.775Z,2.70
2023-02-06T02:19:10.762Z,2.68
2023-02-06T02:20:10.759Z,2.64
2023-02-06T02:21:10.764Z,2.65
2023-02-06T02:22:10.738Z,2.64
2023-02-06T02:23:10.716Z,2.64
2023-02-06T02:24:10.710Z,2.59
2023-02-06T02:25:10.716Z,2.62
2023-02-06T02:26:10.859Z,2.59
2023-02-06T02:27:10.864Z,2.59
2023-02-06T02:28:10.674Z,2.58
2023-02-06T02:29:10.646Z,2.61
2023-02-06T02:30:10.655Z,2.55
2023-02-06T02:31:10.711Z,2.59
2023-02-06T02:32:10.630Z,2.57
2023-02-06T02:33:10.615Z,2.55
2023-02-06T02:34:10.711Z,2.54
2023-02-06T02:35:10.605Z,2.54
2023-02-06T02:36:10.598Z,2.54
2023-02-06T02:37:10.581Z,2.51
2023-02-06T02:38:10.594Z,2.51
2023-02-06T02:39:10.571Z,2.50
2023-02-06T02:40:10.551Z,2.52
2023-02-06T02:41:10.556Z,2.47
2023-02-06T02:42:10.548Z,2.51
2023-02-06T02:43:10.535Z,2.47
2023-02-06T02:44:10.521Z,2.46
2023-02-06T02:45:10.496Z,2.46
2023-02-06T02:46:10.578Z,2.46
2023-02-06T02:47:10.470Z,2.43
2023-02-06T02:48:10.452Z,2.43
2023-02-06T02:49:10.442Z,2.43
2023-02-06T02:50:10.441Z,2.43
2023-02-06T02:51:10.439Z,2.40
2023-02-06T02:52:10.425Z,2.37
2023-02-06T02:53:10.406Z,2.39
2023-02-06T02:54:10.392Z,2.39
2023-02-06T02:55:10.397Z,2.37
2023-02-06T02:56:10.388Z,2.37
2023-02-06T02:57:10.379Z,2.36
2023-02-06T02:58:10.352Z,2.32
2023-02-06T02:59:10.375Z,2.33
2023-02-06T03:00:10.345Z,2.32
2023-02-06T03:01:10.405Z,2.32
2023-02-06T03:02:10.366Z,2.32
2023-02-06T03:03:10.324Z,2.28
2023-02-06T03:04:10.294Z,2.26
2023-02-06T03:05:10.267Z,2.26
2023-02-06T03:06:10.284Z,2.26
2023-02-06T03:07:10.286Z,2.30
2023-02-06T03:08:10.251Z,2.23
2023-02-06T03:09:10.237Z,2.26
2023-02-06T03:10:10.228Z,2.26
2023-02-06T03:11:10.233Z,2.25
2023-02-06T03:12:10.207Z,2.23
2023-02-06T03:13:10.236Z,2.21
2023-02-06T03:14:10.186Z,2.19
2023-02-06T03:15:10.176Z,2.22
2023-02-06T03:16:10.183Z,2.21
2023-02-06T03:17:10.195Z,2.19
2023-02-06T03:18:10.144Z,2.19
2023-02-06T03:19:10.131Z,2.16
2023-02-06T03:20:10.211Z,2.15
2023-02-06T03:21:10.209Z,2.16
2023-02-06T03:22:10.115Z,2.15
2023-02-06T03:23:10.103Z,2.15
2023-02-06T03:24:10.101Z,2.12
2023-02-06T03:25:10.100Z,2.16
2023-02-06T03:26:10.074Z,2.15
2023-02-06T03:27:10.064Z,2.15
2023-02-06T03:28:10.078Z,2.12
2023-02-06T03:29:10.044Z,2.14
2023-02-06T03:30:10.051Z,2.14
2023-02-06T03:31:10.047Z,2.08
2023-02-06T03:32:10.052Z,2.08
2023-02-06T03:33:09.983Z,2.10
2023-02-06T03:34:09.993Z,2.07
2023-02-06T03:35:09.972Z,2.08
2023-02-06T03:36:09.975Z,2.08
2023-02-06T03:37:09.993Z,2.07
2023-02-06T03:38:09.951Z,2.08
2023-02-06T03:39:09.925Z,2.05
2023-02-06T03:40:10.007Z,2.01
2023-02-06T03:41:09.918Z,2.04
2023-02-06T03:42:09.925Z,2.05
2023-02-06T03:43:09.943Z,2.05
2023-02-06T03:44:09.881Z,2.04
2023-02-06T03:45:09.883Z,2.04
2023-02-06T03:46:09.941Z,2.04
2023-02-06T03:47:09.935Z,2.03
2023-02-06T03:48:09.840Z,2.01
2023-02-06T03:49:09.889Z,2.00
2023-02-06T03:50:09.870Z,2.03
2023-02-06T03:51:09.814Z,1.98
2023-02-06T03:52:09.828Z,1.97
2023-02-06T03:53:09.789Z,1.98
2023-02-06T03:54:09.774Z,1.97
2023-02-06T03:55:09.790Z,1.95
2023-02-06T03:56:09.782Z,1.93
2023-02-06T03:57:09.765Z,1.97
2023-02-06T03:58:09.747Z,1.95
2023-02-06T03:59:09.721Z,1.95
2023-02-06T04:00:09.728Z,1.92
2023-02-06T04:01:09.723Z,1.95
2023-02-06T04:02:09.854Z,1.93
2023-02-06T04:03:09.683Z,1.93
2023-02-06T04:04:09.685Z,1.95
2023-02-06T04:05:09.672Z,1.95
2023-02-06T04:06:09.684Z,1.95
2023-02-06T04:07:09.684Z,1.93
2023-02-06T04:08:09.703Z,1.92
2023-02-06T04:09:09.631Z,1.95
2023-02-06T04:10:09.650Z,1.92
2023-02-06T04:11:09.644Z,1.89
2023-02-06T04:12:09.673Z,1.93
2023-02-06T04:13:09.637Z,1.88
2023-02-06T04:14:09.598Z,1.88
2023-02-06T04:15:09.569Z,1.89
2023-02-06T04:16:09.627Z,1.88
2023-02-06T04:17:09.568Z,1.86
2023-02-06T04:18:09.545Z,1.86
2023-02-06T04:19:09.523Z,1.92
2023-02-06T04:20:09.546Z,1.88
2023-02-06T04:21:09.519Z,1.88
2023-02-06T04:22:09.506Z,1.84
2023-02-06T04:23:09.495Z,1.84
2023-02-06T04:24:09.494Z,1.85
2023-02-06T04:25:09.510Z,1.82
2023-02-06T04:26:09.462Z,1.81
2023-02-06T04:27:09.469Z,1.82
2023-02-06T04:28:09.522Z,1.81
2023-02-06T04:29:09.430Z,1.84
2023-02-06T04:30:09.427Z,1.81
2023-02-06T04:31:09.516Z,1.78
2023-02-06T04:32:09.399Z,1.76
2023-02-06T04:33:09.414Z,1.78
2023-02-06T04:34:09.372Z,1.78
2023-02-06T04:35:09.358Z,1.76
2023-02-06T04:36:09.374Z,1.75
2023-02-06T04:37:09.370Z,1.74
2023-02-06T04:38:09.342Z,1.75
2023-02-06T04:39:09.354Z,1.76
2023-02-06T04:40:09.318Z,1.75
2023-02-06T04:41:09.325Z,1.75
2023-02-06T04:42:09.299Z,1.78
2023-02-06T04:43:09.340Z,1.76
2023-02-06T04:44:09.289Z,1.75
2023-02-06T04:45:09.355Z,1.75
2023-02-06T04:46:09.318Z,1.74
2023-02-06T04:47:09.305Z,1.76
2023-02-06T04:48:09.257Z,1.71
2023-02-06T04:49:09.260Z,1.74
2023-02-06T04:50:09.221Z,1.71
2023-02-06T04:51:09.222Z,1.68
2023-02-06T04:52:09.202Z,1.70
2023-02-06T04:53:09.198Z,1.68
2023-02-06T04:54:09.173Z,1.71
2023-02-06T04:55:09.176Z,1.67
2023-02-06T04:56:09.182Z,1.71
2023-02-06T04:57:09.151Z,1.68
2023-02-06T04:58:09.181Z,1.68
2023-02-06T04:59:09.130Z,1.68
2023-02-06T05:00:09.133Z,1.70
2023-02-06T05:01:09.144Z,1.71
2023-02-06T05:02:09.156Z,1.64
2023-02-06T05:03:09.134Z,1.70
2023-02-06T05:04:09.092Z,1.64
2023-02-06T05:05:09.069Z,1.68
2023-02-06T05:06:09.065Z,1.64
2023-02-06T05:07:09.075Z,1.66
2023-02-06T05:08:09.046Z,1.67
2023-02-06T05:09:09.044Z,1.68
2023-02-06T05:10:09.050Z,1.66
2023-02-06T05:11:09.023Z,1.68
2023-02-06T05:12:09.001Z,1.66
2023-02-06T05:13:09.003Z,1.64
2023-02-06T05:14:08.973Z,1.66
2023-02-06T05:15:08.981Z,1.67
2023-02-06T05:16:09.002Z,1.70
2023-02-06T05:17:08.938Z,1.70
2023-02-06T05:18:09.023Z,1.67
2023-02-06T05:19:08.962Z,1.68
2023-02-06T05:20:08.935Z,1.71
2023-02-06T05:21:08.906Z,1.67
2023-02-06T05:22:08.900Z,1.70
2023-02-06T05:23:08.906Z,1.71
2023-02-06T05:24:08.864Z,1.68
2023-02-06T05:25:08.897Z,1.70
2023-02-06T05:26:08.872Z,1.70
2023-02-06T05:27:08.841Z,1.71
2023-02-06T05:28:08.887Z,1.68
2023-02-06T05:29:08.815Z,1.71
2023-02-06T05:30:08.847Z,1.68
2023-02-06T05:31:08.955Z,1.71
2023-02-06T05:32:08.793Z,1.70
2023-02-06T05:33:08.884Z,1.70
2023-02-06T05:34:08.770Z,1.74
2023-02-06T05:35:08.892Z,1.71
2023-02-06T05:36:08.753Z,1.71
2023-02-06T05:37:08.755Z,1.71
2023-02-06T05:38:08.733Z,1.70
2023-02-06T05:39:08.723Z,1.71
2023-02-06T05:40:08.727Z,1.71
2023-02-06T05:41:08.712Z,1.70
2023-02-06T05:42:08.752Z,1.70
2023-02-06T05:43:08.704Z,1.74
2023-02-06T05:44:08.676Z,1.74
2023-02-06T05:45:08.849Z,1.71
2023-02-06T05:46:08.687Z,1.75
2023-02-06T05:47:08.662Z,1.74
2023-02-06T05:48:08.664Z,1.75
2023-02-06T05:49:08.617Z,1.74
2023-02-06T05:50:08.663Z,1.75
2023-02-06T05:51:08.739Z,1.75
2023-02-06T05:52:08.594Z,1.75
2023-02-06T05:53:08.642Z,1.75
2023-02-06T05:54:08.564Z,1.78
2023-02-06T05:55:08.632Z,1.76
2023-02-06T05:56:08.555Z,1.76
2023-02-06T05:57:08.609Z,1.74
2023-02-06T05:58:08.546Z,1.75
2023-02-06T05:59:08.574Z,1.75
2023-02-06T06:00:08.539Z,1.71
2023-02-06T06:01:08.495Z,1.75
2023-02-06T06:02:08.514Z,1.75
2023-02-06T06:03:08.514Z,1.75
2023-02-06T06:04:08.640Z,1.75
2023-02-06T06:05:08.537Z,1.76
2023-02-06T06:06:08.447Z,1.75
2023-02-06T06:07:08.462Z,1.76
2023-02-06T06:08:08.445Z,1.75
2023-02-06T06:09:08.666Z,1.78
2023-02-06T06:10:08.442Z,1.78
2023-02-06T06:11:08.398Z,1.78
2023-02-06T06:12:08.456Z,1.76
2023-02-06T06:13:08.419Z,1.79
2023-02-06T06:14:08.398Z,1.81
2023-02-06T06:15:08.381Z,1.81
2023-02-06T06:16:08.426Z,1.82
2023-02-06T06:17:08.388Z,1.84
2023-02-06T06:18:08.351Z,1.84
2023-02-06T06:19:08.343Z,1.86
2023-02-06T06:20:08.403Z,1.85
2023-02-06T06:21:08.293Z,1.88
2023-02-06T06:22:08.397Z,1.86
2023-02-06T06:23:08.378Z,1.88
2023-02-06T06:24:08.281Z,1.89
2023-02-06T06:25:08.213Z,1.92
2023-02-06T06:26:08.319Z,1.89
2023-02-06T06:27:08.204Z,1.92
2023-02-06T06:28:08.644Z,1.97
2023-02-06T06:29:08.212Z,1.97
2023-02-06T06:30:08.242Z,1.98
2023-02-06T06:31:08.252Z,1.98
2023-02-06T06:32:08.247Z,2.00
2023-02-06T06:33:08.124Z,2.00
2023-02-06T06:34:08.165Z,2.03
2023-02-06T06:35:08.113Z,2.04
2023-02-06T06:36:08.098Z,2.03
2023-02-06T06:37:08.113Z,2.03
2023-02-06T06:38:08.054Z,2.05
2023-02-06T06:39:08.063Z,2.05
2023-02-06T06:40:08.074Z,2.04
2023-02-06T06:41:08.047Z,2.08
2023-02-06T06:42:08.217Z,2.07
2023-02-06T06:43:08.030Z,2.08
2023-02-06T06:44:08.163Z,2.08
2023-02-06T06:45:08.026Z,2.08
2023-02-06T06:46:08.053Z,2.10
2023-02-06T06:47:07.981Z,2.10
2023-02-06T06:48:08.026Z,2.12
2023-02-06T06:49:08.043Z,2.15
2023-02-06T06:50:07.938Z,2.16
2023-02-06T06:51:07.936Z,2.14
2023-02-06T06:52:19.599Z,2.14
2023-02-06T06:53:08.965Z,2.15
2023-02-06T06:54:07.905Z,2.16
2023-02-06T06:55:08.071Z,2.18
2023-02-06T06:56:07.884Z,2.18
2023-02-06T06:57:08.019Z,2.21
2023-02-06T06:58:07.896Z,2.18
2023-02-06T06:59:08.088Z,2.19
2023-02-06T07:00:07.857Z,2.22
2023-02-06T07:01:07.862Z,2.25
2023-02-06T07:02:08.002Z,2.25
2023-02-06T07:03:07.889Z,2.23
2023-02-06T07:04:07.851Z,2.25
2023-02-06T07:05:07.798Z,2.28
2023-02-06T07:06:07.791Z,2.30
2023-02-06T07:07:07.864Z,2.30
2023-02-06T07:08:07.767Z,2.30
2023-02-06T07:09:08.037Z,2.30
2023-02-06T07:10:07.832Z,2.32
2023-02-06T07:11:07.757Z,2.33
2023-02-06T07:12:07.737Z,2.33
2023-02-06T07:13:07.767Z,2.36
2023-02-06T07:14:07.802Z,2.37
2023-02-06T07:15:07.924Z,2.37
2023-02-06T07:16:07.737Z,2.37
2023-02-06T07:17:07.675Z,2.39
2023-02-06T07:18:07.657Z,2.40
2023-02-06T07:19:07.696Z,2.39
2023-02-06T07:20:07.637Z,2.43
2023-02-06T07:21:07.629Z,2.44
2023-02-06T07:22:07.819Z,2.44
2023-02-06T07:23:07.608Z,2.47
2023-02-06T07:24:07.692Z,2.46
2023-02-06T07:25:07.585Z,2.47
2023-02-06T07:26:07.567Z,2.47
2023-02-06T07:27:07.581Z,2.54
2023-02-06T07:28:07.729Z,2.54
2023-02-06T07:29:07.857Z,2.55
2023-02-06T07:30:07.532Z,2.55
2023-02-06T07:31:07.538Z,2.57
2023-02-06T07:32:07.635Z,2.57
2023-02-06T07:33:07.758Z,2.61
2023-02-06T07:34:07.527Z,2.62
2023-02-06T07:35:07.950Z,2.65
2023-02-06T07:36:07.475Z,2.70
2023-02-06T07:37:07.475Z,2.72
2023-02-06T07:38:07.462Z,2.75
2023-02-06T07:39:07.436Z,2.75
2023-02-06T07:40:07.462Z,2.77
2023-02-06T07:41:07.421Z,2.77
2023-02-06T07:42:07.403Z,2.77
2023-02-06T07:43:07.490Z,2.77
2023-02-06T07:44:07.388Z,2.79
2023-02-06T07:45:07.719Z,2.83
2023-02-06T07:46:07.420Z,2.87
2023-02-06T07:47:07.366Z,2.85
2023-02-06T07:48:07.346Z,2.85
2023-02-06T07:49:07.809Z,2.88
2023-02-06T07:50:07.334Z,2.91
2023-02-06T07:51:07.378Z,2.91
2023-02-06T07:52:08.069Z,2.91
2023-02-06T07:53:07.423Z,2.93
2023-02-06T07:54:07.278Z,2.93
2023-02-06T07:55:07.330Z,2.94
2023-02-06T07:56:07.251Z,2.93
2023-02-06T07:57:07.257Z,2.95
2023-02-06T07:58:07.225Z,2.95
2023-02-06T07:59:07.247Z,2.97
2023-02-06T08:00:07.217Z,2.97
2023-02-06T08:01:07.226Z,2.98
2023-02-06T08:02:07.201Z,3.00
2023-02-06T08:03:07.194Z,3.01
2023-02-06T08:04:07.260Z,3.01
2023-02-06T08:05:07.184Z,3.03
2023-02-06T08:06:07.142Z,3.03
2023-02-06T08:07:07.150Z,3.06
2023-02-06T08:08:07.160Z,3.08
2023-02-06T08:09:07.190Z,3.09
2023-02-06T08:10:07.143Z,3.09
2023-02-06T08:11:07.144Z,3.08
2023-02-06T08:12:07.084Z,3.11
2023-02-06T08:13:07.106Z,3.12
2023-02-06T08:14:07.113Z,3.13
2023-02-06T08:15:07.066Z,3.13
2023-02-06T08:16:07.047Z,3.15
2023-02-06T08:17:07.074Z,3.15
2023-02-06T08:18:07.121Z,3.15
2023-02-06T08:19:07.019Z,3.16
2023-02-06T08:20:07.001Z,3.15
2023-02-06T08:21:07.014Z,3.16
2023-02-06T08:22:07.018Z,3.21
2023-02-06T08:23:07.016Z,3.19
2023-02-06T08:24:06.960Z,3.21
2023-02-06T08:25:06.979Z,3.26
2023-02-06T08:26:06.938Z,3.29
2023-02-06T08:27:06.968Z,3.30
2023-02-06T08:28:06.984Z,3.30
2023-02-06T08:29:06.957Z,3.36
2023-02-06T08:30:06.970Z,3.37
2023-02-06T08:31:07.630Z,3.40
2023-02-06T08:32:06.881Z,3.41
2023-02-06T08:33:06.877Z,3.49
2023-02-06T08:34:06.899Z,3.55
2023-02-06T08:35:06.917Z,3.61
2023-02-06T08:36:06.875Z,3.58
2023-02-06T08:37:06.963Z,3.67
2023-02-06T08:38:06.836Z,3.70
2023-02-06T08:39:06.795Z,3.71
2023-02-06T08:40:06.845Z,3.77
2023-02-06T08:41:06.840Z,3.77
2023-02-06T08:42:07.010Z,3.77
2023-02-06T08:43:06.787Z,3.84
2023-02-06T08:44:06.746Z,3.82
2023-02-06T08:45:06.794Z,3.85
2023-02-06T08:46:06.802Z,3.85
2023-02-06T08:47:10.481Z,3.89
2023-02-06T08:48:06.712Z,3.88
2023-02-06T08:49:06.726Z,3.92
2023-02-06T08:50:06.723Z,3.91
2023-02-06T08:51:06.912Z,3.91
2023-02-06T08:52:06.675Z,3.94
2023-02-06T08:53:06.690Z,3.94
2023-02-06T08:54:06.694Z,3.99
2023-02-06T08:55:06.661Z,4.02
2023-02-06T08:56:06.656Z,4.04
2023-02-06T08:57:06.821Z,4.10
2023-02-06T08:58:06.632Z,4.13
2023-02-06T08:59:06.668Z,4.18
2023-02-06T09:00:06.632Z,4.22
2023-02-06T09:01:06.630Z,4.25
2023-02-06T09:02:08.331Z,4.24
2023-02-06T09:03:06.648Z,4.27
2023-02-06T09:04:06.616Z,4.30
2023-02-06T09:05:06.534Z,4.31
2023-02-06T09:06:10.376Z,4.34
2023-02-06T09:07:06.526Z,4.36
2023-02-06T09:08:06.498Z,4.38
2023-02-06T09:09:06.479Z,4.36
2023-02-06T09:10:07.428Z,4.38
2023-02-06T09:11:06.488Z,4.39
2023-02-06T09:12:06.489Z,4.40
2023-02-06T09:13:06.471Z,4.39
2023-02-06T09:14:06.436Z,4.40
2023-02-06T09:15:06.422Z,4.42
2023-02-06T09:16:06.624Z,4.42
2023-02-06T09:17:06.416Z,4.42
2023-02-06T09:18:06.390Z,4.40
2023-02-06T09:19:06.382Z,4.38
2023-02-06T09:20:06.405Z,4.36
2023-02-06T09:21:06.372Z,4.34
2023-02-06T09:22:07.251Z,4.38
2023-02-06T09:23:06.351Z,4.39
2023-02-06T09:24:06.715Z,4.40
2023-02-06T09:25:06.308Z,4.42
2023-02-06T09:26:06.306Z,4.46
2023-02-06T09:27:06.338Z,4.49
2023-02-06T09:28:06.460Z,4.50
2023-02-06T09:29:06.266Z,4.56
2023-02-06T09:30:06.276Z,4.58
2023-02-06T09:31:06.421Z,4.58
2023-02-06T09:32:06.353Z,4.63
2023-02-06T09:33:06.245Z,4.63
2023-02-06T09:34:06.239Z,4.61
2023-02-06T09:35:06.202Z,4.66
2023-02-06T09:36:06.198Z,4.61
2023-02-06T09:37:06.205Z,4.70
2023-02-06T09:38:06.234Z,4.70
2023-02-06T09:39:06.197Z,4.78
2023-02-06T09:40:06.202Z,4.84
2023-02-06T09:41:06.240Z,4.90
2023-02-06T09:42:06.279Z,4.98
2023-02-06T09:43:06.182Z,5.02
2023-02-06T09:44:06.177Z,5.07
2023-02-06T09:45:06.166Z,5.12
2023-02-06T09:46:06.171Z,5.13
2023-02-06T09:47:06.139Z,5.19
2023-02-06T09:48:06.121Z,5.19
2023-02-06T09:49:06.154Z,5.22
2023-02-06T09:50:06.159Z,5.25
2023-02-06T09:51:06.089Z,5.25
2023-02-06T09:52:06.094Z,5.31
2023-02-06T09:53:06.079Z,5.36
2023-02-06T09:54:06.176Z,5.40
2023-02-06T09:55:06.061Z,5.46
2023-02-06T09:56:06.065Z,5.51
2023-02-06T09:57:06.253Z,5.55
2023-02-06T09:58:06.011Z,5.54
2023-02-06T09:59:06.021Z,5.65
2023-02-06T10:00:06.034Z,5.72
2023-02-06T10:01:06.033Z,5.81
2023-02-06T10:02:05.970Z,5.84
2023-02-06T10:03:06.009Z,5.84
2023-02-06T10:04:05.955Z,5.91
2023-02-06T10:05:06.045Z,5.95
2023-02-06T10:06:05.934Z,5.99
2023-02-06T10:07:05.978Z,6.05
2023-02-06T10:08:05.900Z,6.10
2023-02-06T10:09:05.941Z,6.16
2023-02-06T10:10:05.862Z,6.15
2023-02-06T10:11:05.840Z,6.20
2023-02-06T10:12:05.921Z,6.22
2023-02-06T10:13:05.859Z,6.29
2023-02-06T10:14:05.953Z,6.34
2023-02-06T10:15:05.804Z,6.36
2023-02-06T10:16:05.811Z,6.38
2023-02-06T10:17:05.857Z,6.44
2023-02-06T10:18:05.774Z,6.46
2023-02-06T10:19:05.776Z,6.46
2023-02-06T10:20:05.752Z,6.49
2023-02-06T10:21:06.075Z,6.49
2023-02-06T10:22:05.740Z,6.49
2023-02-06T10:23:05.773Z,6.50
2023-02-06T10:24:05.780Z,6.50
2023-02-06T10:25:05.730Z,6.57
2023-02-06T10:26:05.727Z,6.59
2023-02-06T10:27:05.781Z,6.65
2023-02-06T10:28:05.797Z,6.70
2023-02-06T10:29:05.775Z,6.75
2023-02-06T10:30:05.719Z,6.80
2023-02-06T10:31:05.729Z,6.87
2023-02-06T10:32:05.663Z,6.92
2023-02-06T10:33:09.708Z,6.97
2023-02-06T10:34:06.632Z,7.03
2023-02-06T10:35:05.624Z,7.10
2023-02-06T10:36:05.640Z,7.11
2023-02-06T10:37:05.611Z,7.19
2023-02-06T10:38:05.632Z,7.22
2023-02-06T10:39:05.581Z,7.28
2023-02-06T10:40:05.571Z,7.37
2023-02-06T10:41:05.560Z,7.41
2023-02-06T10:42:05.639Z,7.46
2023-02-06T10:43:05.562Z,7.48
2023-02-06T10:44:05.532Z,7.51
2023-02-06T10:45:19.006Z,7.56
2023-02-06T10:46:06.571Z,7.58
2023-02-06T10:47:05.826Z,7.61
2023-02-06T10:48:05.561Z,7.66
2023-02-06T10:49:06.219Z,7.69
2023-02-06T10:50:05.533Z,7.74
2023-02-06T10:51:05.550Z,7.75
2023-02-06T10:52:05.482Z,7.78
2023-02-06T10:53:05.476Z,7.87
2023-02-06T10:54:05.489Z,7.84
2023-02-06T10:55:05.402Z,7.90
2023-02-06T10:56:05.453Z,7.90
2023-02-06T10:57:05.449Z,7.96
2023-02-06T10:58:05.433Z,7.95
2023-02-06T10:59:05.372Z,8.01
2023-02-06T11:00:05.370Z,8.01
2023-02-06T11:01:13.885Z,8.03
2023-02-06T11:02:06.441Z,8.01
2023-02-06T11:03:07.866Z,8.05
2023-02-06T11:04:05.334Z,8.05
2023-02-06T11:05:05.323Z,8.05
2023-02-06T11:06:05.340Z,8.06
2023-02-06T11:07:05.270Z,8.09
2023-02-06T11:08:05.341Z,8.06
2023-02-06T11:09:05.295Z,8.08
2023-02-06T11:10:05.284Z,8.05
2023-02-06T11:11:05.267Z,8.05
2023-02-06T11:12:05.297Z,8.02
2023-02-06T11:13:05.228Z,8.02
2023-02-06T11:14:05.258Z,7.99
2023-02-06T11:15:05.223Z,8.03
2023-02-06T11:16:05.245Z,8.05
2023-02-06T11:17:05.174Z,8.09
2023-02-06T11:18:05.232Z,8.13
2023-02-06T11:19:05.182Z,8.14
2023-02-06T11:20:05.151Z,8.13
2023-02-06T11:21:05.137Z,8.18
2023-02-06T11:22:05.179Z,8.17
2023-02-06T11:23:05.145Z,8.20
2023-02-06T11:24:05.129Z,8.18
2023-02-06T11:25:05.161Z,8.18
2023-02-06T11:26:05.127Z,8.16
2023-02-06T11:27:05.074Z,8.13
2023-02-06T11:28:05.143Z,8.14
2023-02-06T11:29:05.080Z,8.11
2023-02-06T11:30:05.060Z,8.09
2023-02-06T11:31:05.042Z,8.09
2023-02-06T11:32:05.034Z,8.06
2023-02-06T11:33:05.262Z,8.11
2023-02-06T11:34:05.006Z,8.11
2023-02-06T11:35:05.000Z,8.09
2023-02-06T11:36:04.999Z,8.09
2023-02-06T11:37:04.993Z,8.09
2023-02-06T11:38:05.553Z,8.08
2023-02-06T11:39:04.979Z,8.06
2023-02-06T11:40:04.935Z,8.06
2023-02-06T11:41:04.917Z,8.06
2023-02-06T11:42:04.916Z,8.06
2023-02-06T11:43:05.098Z,8.06
2023-02-06T11:44:04.901Z,8.08
2023-02-06T11:45:04.907Z,8.11
2023-02-06T11:46:04.934Z,8.16
2023-02-06T11:47:04.854Z,8.24
2023-02-06T11:48:04.877Z,8.28
2023-02-06T11:49:05.046Z,8.39
2023-02-06T11:50:04.870Z,8.46
2023-02-06T11:51:04.842Z,8.57
2023-02-06T11:52:04.837Z,8.60
2023-02-06T11:53:04.804Z,8.66
2023-02-06T11:54:04.845Z,8.72
2023-02-06T11:55:04.808Z,8.71
2023-02-06T11:56:04.799Z,8.75
2023-02-06T11:57:04.807Z,8.75
2023-02-06T11:58:04.763Z,8.78
2023-02-06T11:59:06.871Z,8.79
2023-02-06T12:00:04.895Z,8.78
2023-02-06T12:01:04.759Z,8.78
2023-02-06T12:02:04.715Z,8.72
2023-02-06T12:03:04.757Z,8.71
2023-02-06T12:04:04.674Z,8.66
2023-02-06T12:05:04.674Z,8.64
2023-02-06T12:06:04.636Z,8.60
2023-02-06T12:07:04.658Z,8.59
2023-02-06T12:08:04.703Z,8.57
2023-02-06T12:09:04.615Z,8.61
2023-02-06T12:10:04.606Z,8.66
2023-02-06T12:11:04.599Z,8.71
2023-02-06T12:12:04.576Z,8.72
2023-02-06T12:13:04.583Z,8.78
2023-02-06T12:14:04.549Z,8.82
2023-02-06T12:15:23.678Z,8.86
2023-02-06T12:16:05.575Z,8.92
2023-02-06T12:17:04.534Z,8.95
2023-02-06T12:18:04.498Z,9.05
2023-02-06T12:19:04.492Z,9.11
2023-02-06T12:20:04.489Z,9.13
2023-02-06T12:21:04.492Z,9.12
2023-02-06T12:22:04.491Z,9.12
2023-02-06T12:23:04.445Z,9.13
2023-02-06T12:24:04.569Z,9.22
2023-02-06T12:25:04.448Z,9.30
2023-02-06T12:26:04.420Z,9.39
2023-02-06T12:27:04.412Z,9.55
2023-02-06T12:28:04.429Z,9.66
2023-02-06T12:29:04.426Z,9.73
2023-02-06T12:30:04.404Z,9.81
2023-02-06T12:31:04.435Z,9.90
2023-02-06T12:32:04.398Z,9.97
2023-02-06T12:33:04.340Z,10.00
2023-02-06T12:34:04.413Z,10.07
2023-02-06T12:35:04.352Z,10.17
2023-02-06T12:36:04.351Z,10.21
2023-02-06T12:37:04.297Z,10.25
2023-02-06T12:38:04.324Z,10.23
2023-02-06T12:39:04.279Z,10.20
2023-02-06T12:40:04.303Z,10.18
2023-02-06T12:41:04.550Z,10.21
2023-02-06T12:42:04.275Z,10.23
2023-02-06T12:43:04.242Z,10.21
2023-02-06T12:44:04.216Z,10.17
2023-02-06T12:45:04.217Z,10.17
2023-02-06T12:46:04.525Z,10.17
2023-02-06T12:47:04.237Z,10.20
2023-02-06T12:48:04.175Z,10.17
2023-02-06T12:49:04.192Z,10.10
2023-02-06T12:50:04.195Z,10.07
2023-02-06T12:51:04.146Z,10.09
2023-02-06T12:52:04.131Z,10.06
2023-02-06T12:53:04.143Z,10.03
2023-02-06T12:54:04.142Z,9.99
2023-02-06T12:55:04.122Z,9.94
2023-02-06T12:56:04.122Z,9.92
2023-02-06T12:57:04.105Z,9.91
2023-02-06T12:58:04.066Z,9.97
2023-02-06T12:59:04.136Z,10.03
2023-02-06T13:00:04.083Z,9.95
2023-02-06T13:01:04.746Z,9.87
2023-02-06T13:02:04.127Z,9.81
2023-02-06T13:03:04.058Z,9.76
2023-02-06T13:04:04.015Z,9.69
2023-02-06T13:05:04.031Z,9.58
2023-02-06T13:06:04.010Z,9.52
2023-02-06T13:07:04.004Z,9.49
2023-02-06T13:08:03.950Z,9.51
2023-02-06T13:09:04.003Z,9.56
2023-02-06T13:10:03.935Z,9.58
2023-02-06T13:11:03.930Z,9.54
2023-02-06T13:12:03.986Z,9.49
2023-02-06T13:13:03.910Z,9.51
2023-02-06T13:14:03.908Z,9.44
2023-02-06T13:15:03.904Z,9.45
2023-02-06T13:16:03.919Z,9.44
2023-02-06T13:17:03.867Z,9.49